sensor_id;sensor_type;location;lat;lon;timestamp;pressure;altitude;pressure_sealevel;temperature
33877;BMP180;20166;51.738;7.158;2023-08-06T00:02:22;99999.00;;;15.60
33877;BMP180;20166;51.738;7.158;2023-08-06T00:05:08;100011.00;;;15.70
33877;BMP180;20166;51.738;7.158;2023-08-06T00:07:55;100002.00;;;15.70
33877;BMP180;20166;51.738;7.158;2023-08-06T00:10:41;100005.00;;;15.60
33877;BMP180;20166;51.738;7.158;2023-08-06T00:13:27;100002.00;;;15.60
33877;BMP180;20166;51.738;7.158;2023-08-06T00:16:14;100001.00;;;15.70
33877;BMP180;20166;51.738;7.158;2023-08-06T00:19:02;99996.00;;;15.70
33877;BMP180;20166;51.738;7.158;2023-08-06T00:21:48;99996.00;;;15.70
33877;BMP180;20166;51.738;7.158;2023-08-06T00:24:35;99993.00;;;15.70
33877;BMP180;20166;51.738;7.158;2023-08-06T00:27:22;99996.00;;;15.80
33877;BMP180;20166;51.738;7.158;2023-08-06T00:30:09;99995.00;;;15.70
33877;BMP180;20166;51.738;7.158;2023-08-06T00:32:55;100003.00;;;15.70
33877;BMP180;20166;51.738;7.158;2023-08-06T00:35:43;99998.00;;;15.70
33877;BMP180;20166;51.738;7.158;2023-08-06T00:38:29;99989.00;;;15.90
33877;BMP180;20166;51.738;7.158;2023-08-06T00:41:16;99986.00;;;15.80
33877;BMP180;20166;51.738;7.158;2023-08-06T00:44:02;99985.00;;;15.70
33877;BMP180;20166;51.738;7.158;2023-08-06T00:46:49;99980.00;;;15.80
33877;BMP180;20166;51.738;7.158;2023-08-06T00:49:36;99991.00;;;15.60
33877;BMP180;20166;51.738;7.158;2023-08-06T00:52:24;99973.00;;;15.60
33877;BMP180;20166;51.738;7.158;2023-08-06T00:55:11;99977.00;;;15.60
33877;BMP180;20166;51.738;7.158;2023-08-06T00:57:57;99966.00;;;15.70
33877;BMP180;20166;51.738;7.158;2023-08-06T01:00:43;99973.00;;;15.70
33877;BMP180;20166;51.738;7.158;2023-08-06T01:03:31;99955.00;;;15.60
33877;BMP180;20166;51.738;7.158;2023-08-06T01:06:19;99954.00;;;15.70
33877;BMP180;20166;51.738;7.158;2023-08-06T01:09:20;99959.00;;;15.60
33877;BMP180;20166;51.738;7.158;2023-08-06T01:12:18;99942.00;;;15.70
33877;BMP180;20166;51.738;7.158;2023-08-06T01:15:11;99957.00;;;15.70
33877;BMP180;20166;51.738;7.158;2023-08-06T01:18:18;99951.00;;;15.70
33877;BMP180;20166;51.738;7.158;2023-08-06T01:21:06;99943.00;;;15.80
33877;BMP180;20166;51.738;7.158;2023-08-06T01:23:53;99939.00;;;15.80
33877;BMP180;20166;51.738;7.158;2023-08-06T01:26:45;99943.00;;;15.70
33877;BMP180;20166;51.738;7.158;2023-08-06T01:29:37;99946.00;;;15.80
33877;BMP180;20166;51.738;7.158;2023-08-06T01:32:24;99940.00;;;15.80
33877;BMP180;20166;51.738;7.158;2023-08-06T01:35:14;99938.00;;;15.70
33877;BMP180;20166;51.738;7.158;2023-08-06T01:38:03;99935.00;;;15.70
33877;BMP180;20166;51.738;7.158;2023-08-06T01:40:49;99932.00;;;15.70
33877;BMP180;20166;51.738;7.158;2023-08-06T01:43:36;99927.00;;;15.70
33877;BMP180;20166;51.738;7.158;2023-08-06T01:46:22;99922.00;;;15.60
33877;BMP180;20166;51.738;7.158;2023-08-06T01:49:09;99913.00;;;15.60
33877;BMP180;20166;51.738;7.158;2023-08-06T01:51:55;99915.00;;;15.70
33877;BMP180;20166;51.738;7.158;2023-08-06T01:54:43;99912.00;;;15.60
33877;BMP180;20166;51.738;7.158;2023-08-06T01:57:29;99909.00;;;15.70
33877;BMP180;20166;51.738;7.158;2023-08-06T02:00:16;99913.00;;;15.60
33877;BMP180;20166;51.738;7.158;2023-08-06T02:03:03;99912.00;;;15.70
33877;BMP180;20166;51.738;7.158;2023-08-06T02:05:49;99907.00;;;15.80
33877;BMP180;20166;51.738;7.158;2023-08-06T02:08:39;99906.00;;;15.70
33877;BMP180;20166;51.738;7.158;2023-08-06T02:11:27;99911.00;;;15.70
33877;BMP180;20166;51.738;7.158;2023-08-06T02:14:13;99902.00;;;15.70
33877;BMP180;20166;51.738;7.158;2023-08-06T02:17:00;99904.00;;;15.60
33877;BMP180;20166;51.738;7.158;2023-08-06T02:19:46;99898.00;;;15.70
33877;BMP180;20166;51.738;7.158;2023-08-06T02:22:33;99895.00;;;15.70
33877;BMP180;20166;51.738;7.158;2023-08-06T02:25:19;99900.00;;;15.70
33877;BMP180;20166;51.738;7.158;2023-08-06T02:28:06;99901.00;;;15.60
33877;BMP180;20166;51.738;7.158;2023-08-06T02:30:54;99900.00;;;15.60
33877;BMP180;20166;51.738;7.158;2023-08-06T02:33:40;99892.00;;;15.70
33877;BMP180;20166;51.738;7.158;2023-08-06T02:36:26;99901.00;;;15.70
33877;BMP180;20166;51.738;7.158;2023-08-06T02:39:14;99893.00;;;15.70
33877;BMP180;20166;51.738;7.158;2023-08-06T02:42:00;99899.00;;;15.60
33877;BMP180;20166;51.738;7.158;2023-08-06T02:44:49;99901.00;;;15.70
33877;BMP180;20166;51.738;7.158;2023-08-06T02:47:35;99894.00;;;15.60
33877;BMP180;20166;51.738;7.158;2023-08-06T02:50:21;99891.00;;;15.70
33877;BMP180;20166;51.738;7.158;2023-08-06T02:53:08;99887.00;;;15.70
33877;BMP180;20166;51.738;7.158;2023-08-06T02:55:55;99881.00;;;15.60
33877;BMP180;20166;51.738;7.158;2023-08-06T02:58:41;99874.00;;;15.70
33877;BMP180;20166;51.738;7.158;2023-08-06T03:01:29;99868.00;;;15.70
33877;BMP180;20166;51.738;7.158;2023-08-06T03:04:15;99863.00;;;15.70
33877;BMP180;20166;51.738;7.158;2023-08-06T03:07:04;99867.00;;;15.60
33877;BMP180;20166;51.738;7.158;2023-08-06T03:09:50;99859.00;;;15.60
33877;BMP180;20166;51.738;7.158;2023-08-06T03:12:37;99855.00;;;15.60
33877;BMP180;20166;51.738;7.158;2023-08-06T03:15:23;99862.00;;;15.70
33877;BMP180;20166;51.738;7.158;2023-08-06T03:18:11;99853.00;;;15.60
33877;BMP180;20166;51.738;7.158;2023-08-06T03:20:57;99857.00;;;15.60
33877;BMP180;20166;51.738;7.158;2023-08-06T03:23:46;99849.00;;;15.60
33877;BMP180;20166;51.738;7.158;2023-08-06T03:26:33;99844.00;;;15.60
33877;BMP180;20166;51.738;7.158;2023-08-06T03:29:19;99851.00;;;15.70
33877;BMP180;20166;51.738;7.158;2023-08-06T03:32:07;99846.00;;;15.60
33877;BMP180;20166;51.738;7.158;2023-08-06T03:34:55;99837.00;;;15.60
33877;BMP180;20166;51.738;7.158;2023-08-06T03:37:41;99838.00;;;15.60
33877;BMP180;20166;51.738;7.158;2023-08-06T03:40:28;99841.00;;;15.60
33877;BMP180;20166;51.738;7.158;2023-08-06T03:43:14;99835.00;;;15.50
33877;BMP180;20166;51.738;7.158;2023-08-06T03:46:00;99837.00;;;15.50
33877;BMP180;20166;51.738;7.158;2023-08-06T03:48:47;99841.00;;;15.50
33877;BMP180;20166;51.738;7.158;2023-08-06T03:51:34;99832.00;;;15.50
33877;BMP180;20166;51.738;7.158;2023-08-06T03:54:21;99835.00;;;15.60
33877;BMP180;20166;51.738;7.158;2023-08-06T03:57:08;99847.00;;;15.60
33877;BMP180;20166;51.738;7.158;2023-08-06T03:59:55;99838.00;;;15.50
33877;BMP180;20166;51.738;7.158;2023-08-06T04:02:41;99841.00;;;15.40
33877;BMP180;20166;51.738;7.158;2023-08-06T04:05:30;99833.00;;;15.40
33877;BMP180;20166;51.738;7.158;2023-08-06T04:08:18;99831.00;;;15.40
33877;BMP180;20166;51.738;7.158;2023-08-06T04:11:05;99833.00;;;15.40
33877;BMP180;20166;51.738;7.158;2023-08-06T04:13:51;99826.00;;;15.40
33877;BMP180;20166;51.738;7.158;2023-08-06T04:16:39;99830.00;;;15.40
33877;BMP180;20166;51.738;7.158;2023-08-06T04:19:26;99832.00;;;15.40
33877;BMP180;20166;51.738;7.158;2023-08-06T04:22:12;99827.00;;;15.40
33877;BMP180;20166;51.738;7.158;2023-08-06T04:25:00;99831.00;;;15.40
33877;BMP180;20166;51.738;7.158;2023-08-06T04:27:46;99837.00;;;15.40
33877;BMP180;20166;51.738;7.158;2023-08-06T04:30:33;99842.00;;;15.40
33877;BMP180;20166;51.738;7.158;2023-08-06T04:33:20;99839.00;;;15.50
33877;BMP180;20166;51.738;7.158;2023-08-06T04:36:06;99837.00;;;15.50
33877;BMP180;20166;51.738;7.158;2023-08-06T04:38:53;99838.00;;;15.50
33877;BMP180;20166;51.738;7.158;2023-08-06T04:41:41;99828.00;;;15.70
33877;BMP180;20166;51.738;7.158;2023-08-06T04:44:28;99836.00;;;15.90
33877;BMP180;20166;51.738;7.158;2023-08-06T04:47:14;99832.00;;;15.60
33877;BMP180;20166;51.738;7.158;2023-08-06T04:50:03;99826.00;;;15.70
33877;BMP180;20166;51.738;7.158;2023-08-06T04:52:50;99831.00;;;15.70
33877;BMP180;20166;51.738;7.158;2023-08-06T04:55:36;99833.00;;;15.70
33877;BMP180;20166;51.738;7.158;2023-08-06T04:58:24;99829.00;;;15.60
33877;BMP180;20166;51.738;7.158;2023-08-06T05:01:10;99837.00;;;15.70
33877;BMP180;20166;51.738;7.158;2023-08-06T05:03:57;99833.00;;;15.70
33877;BMP180;20166;51.738;7.158;2023-08-06T05:06:43;99848.00;;;15.80
33877;BMP180;20166;51.738;7.158;2023-08-06T05:09:29;99840.00;;;15.80
33877;BMP180;20166;51.738;7.158;2023-08-06T05:12:15;99843.00;;;15.80
33877;BMP180;20166;51.738;7.158;2023-08-06T05:15:04;99843.00;;;15.80
33877;BMP180;20166;51.738;7.158;2023-08-06T05:17:51;99833.00;;;15.90
33877;BMP180;20166;51.738;7.158;2023-08-06T05:20:39;99837.00;;;15.90
33877;BMP180;20166;51.738;7.158;2023-08-06T05:23:25;99845.00;;;15.90
33877;BMP180;20166;51.738;7.158;2023-08-06T05:26:12;99840.00;;;16.00
33877;BMP180;20166;51.738;7.158;2023-08-06T05:29:00;99842.00;;;15.90
33877;BMP180;20166;51.738;7.158;2023-08-06T05:31:48;99847.00;;;15.90
33877;BMP180;20166;51.738;7.158;2023-08-06T05:34:34;99851.00;;;15.80
33877;BMP180;20166;51.738;7.158;2023-08-06T05:37:20;99846.00;;;15.80
33877;BMP180;20166;51.738;7.158;2023-08-06T05:40:07;99856.00;;;15.70
33877;BMP180;20166;51.738;7.158;2023-08-06T05:42:54;99851.00;;;15.60
33877;BMP180;20166;51.738;7.158;2023-08-06T05:45:44;99851.00;;;15.70
33877;BMP180;20166;51.738;7.158;2023-08-06T05:48:33;99853.00;;;15.80
33877;BMP180;20166;51.738;7.158;2023-08-06T05:51:19;99846.00;;;15.80
33877;BMP180;20166;51.738;7.158;2023-08-06T05:54:06;99856.00;;;15.90
33877;BMP180;20166;51.738;7.158;2023-08-06T05:56:52;99858.00;;;15.80
33877;BMP180;20166;51.738;7.158;2023-08-06T05:59:40;99856.00;;;15.80
33877;BMP180;20166;51.738;7.158;2023-08-06T06:02:26;99858.00;;;16.00
33877;BMP180;20166;51.738;7.158;2023-08-06T06:05:14;99865.00;;;16.00
33877;BMP180;20166;51.738;7.158;2023-08-06T06:08:01;99864.00;;;16.00
33877;BMP180;20166;51.738;7.158;2023-08-06T06:10:47;99865.00;;;16.10
33877;BMP180;20166;51.738;7.158;2023-08-06T06:13:34;99871.00;;;16.20
33877;BMP180;20166;51.738;7.158;2023-08-06T06:16:21;99872.00;;;16.20
33877;BMP180;20166;51.738;7.158;2023-08-06T06:19:07;99875.00;;;16.30
33877;BMP180;20166;51.738;7.158;2023-08-06T06:21:55;99871.00;;;16.30
33877;BMP180;20166;51.738;7.158;2023-08-06T06:24:43;99878.00;;;16.30
33877;BMP180;20166;51.738;7.158;2023-08-06T06:27:29;99876.00;;;16.30
33877;BMP180;20166;51.738;7.158;2023-08-06T06:30:16;99869.00;;;16.40
33877;BMP180;20166;51.738;7.158;2023-08-06T06:33:02;99875.00;;;16.50
33877;BMP180;20166;51.738;7.158;2023-08-06T06:35:48;99865.00;;;16.60
33877;BMP180;20166;51.738;7.158;2023-08-06T06:38:36;99865.00;;;16.70
33877;BMP180;20166;51.738;7.158;2023-08-06T06:41:23;99872.00;;;16.80
33877;BMP180;20166;51.738;7.158;2023-08-06T06:44:09;99871.00;;;16.70
33877;BMP180;20166;51.738;7.158;2023-08-06T06:46:56;99877.00;;;16.60
33877;BMP180;20166;51.738;7.158;2023-08-06T06:49:42;99878.00;;;16.70
33877;BMP180;20166;51.738;7.158;2023-08-06T06:52:29;99868.00;;;16.80
33877;BMP180;20166;51.738;7.158;2023-08-06T06:55:17;99876.00;;;16.90
33877;BMP180;20166;51.738;7.158;2023-08-06T06:58:04;99873.00;;;16.90
33877;BMP180;20166;51.738;7.158;2023-08-06T07:00:50;99888.00;;;16.80
33877;BMP180;20166;51.738;7.158;2023-08-06T07:03:37;99884.00;;;16.70
33877;BMP180;20166;51.738;7.158;2023-08-06T07:06:23;99884.00;;;16.80
33877;BMP180;20166;51.738;7.158;2023-08-06T07:09:09;99880.00;;;16.80
33877;BMP180;20166;51.738;7.158;2023-08-06T07:11:57;99882.00;;;17.00
33877;BMP180;20166;51.738;7.158;2023-08-06T07:14:44;99874.00;;;16.90
33877;BMP180;20166;51.738;7.158;2023-08-06T07:17:30;99869.00;;;16.90
33877;BMP180;20166;51.738;7.158;2023-08-06T07:20:16;99865.00;;;17.10
33877;BMP180;20166;51.738;7.158;2023-08-06T07:23:03;99869.00;;;17.40
33877;BMP180;20166;51.738;7.158;2023-08-06T07:25:53;99866.00;;;17.60
33877;BMP180;20166;51.738;7.158;2023-08-06T07:28:40;99867.00;;;17.80
33877;BMP180;20166;51.738;7.158;2023-08-06T07:31:27;99874.00;;;17.80
33877;BMP180;20166;51.738;7.158;2023-08-06T07:34:13;99882.00;;;17.90
33877;BMP180;20166;51.738;7.158;2023-08-06T07:37:00;99889.00;;;17.70
33877;BMP180;20166;51.738;7.158;2023-08-06T07:39:47;99884.00;;;17.50
33877;BMP180;20166;51.738;7.158;2023-08-06T07:42:34;99891.00;;;17.80
33877;BMP180;20166;51.738;7.158;2023-08-06T07:45:21;99889.00;;;17.80
33877;BMP180;20166;51.738;7.158;2023-08-06T07:48:08;99890.00;;;17.80
33877;BMP180;20166;51.738;7.158;2023-08-06T07:50:55;99900.00;;;17.90
33877;BMP180;20166;51.738;7.158;2023-08-06T07:53:41;99895.00;;;17.70
33877;BMP180;20166;51.738;7.158;2023-08-06T07:56:28;99903.00;;;17.90
33877;BMP180;20166;51.738;7.158;2023-08-06T07:59:14;99899.00;;;17.80
33877;BMP180;20166;51.738;7.158;2023-08-06T08:02:02;99899.00;;;17.60
33877;BMP180;20166;51.738;7.158;2023-08-06T08:04:49;99903.00;;;17.70
33877;BMP180;20166;51.738;7.158;2023-08-06T08:07:36;99904.00;;;17.70
33877;BMP180;20166;51.738;7.158;2023-08-06T08:10:23;99903.00;;;17.80
33877;BMP180;20166;51.738;7.158;2023-08-06T08:13:09;99910.00;;;17.80
33877;BMP180;20166;51.738;7.158;2023-08-06T08:15:59;99902.00;;;17.90
33877;BMP180;20166;51.738;7.158;2023-08-06T08:18:46;99914.00;;;17.90
33877;BMP180;20166;51.738;7.158;2023-08-06T08:21:33;99909.00;;;17.90
33877;BMP180;20166;51.738;7.158;2023-08-06T08:24:20;99901.00;;;17.90
33877;BMP180;20166;51.738;7.158;2023-08-06T08:27:09;99908.00;;;17.90
33877;BMP180;20166;51.738;7.158;2023-08-06T08:29:55;99908.00;;;17.90
33877;BMP180;20166;51.738;7.158;2023-08-06T08:32:41;99908.00;;;17.90
33877;BMP180;20166;51.738;7.158;2023-08-06T08:35:29;99907.00;;;18.00
33877;BMP180;20166;51.738;7.158;2023-08-06T08:38:16;99910.00;;;18.10
33877;BMP180;20166;51.738;7.158;2023-08-06T08:41:02;99903.00;;;17.90
33877;BMP180;20166;51.738;7.158;2023-08-06T08:43:50;99909.00;;;18.10
33877;BMP180;20166;51.738;7.158;2023-08-06T08:46:38;99908.00;;;18.20
33877;BMP180;20166;51.738;7.158;2023-08-06T08:49:27;99902.00;;;18.40
33877;BMP180;20166;51.738;7.158;2023-08-06T08:52:16;99901.00;;;18.40
33877;BMP180;20166;51.738;7.158;2023-08-06T08:55:04;99899.00;;;18.50
33877;BMP180;20166;51.738;7.158;2023-08-06T08:57:52;99902.00;;;18.50
33877;BMP180;20166;51.738;7.158;2023-08-06T09:00:39;99895.00;;;18.70
33877;BMP180;20166;51.738;7.158;2023-08-06T09:03:27;99898.00;;;18.60
33877;BMP180;20166;51.738;7.158;2023-08-06T09:06:15;99911.00;;;18.70
33877;BMP180;20166;51.738;7.158;2023-08-06T09:09:08;99905.00;;;18.50
33877;BMP180;20166;51.738;7.158;2023-08-06T09:11:59;99902.00;;;18.70
33877;BMP180;20166;51.738;7.158;2023-08-06T09:14:47;99908.00;;;18.90
33877;BMP180;20166;51.738;7.158;2023-08-06T09:17:33;99902.00;;;19.00
33877;BMP180;20166;51.738;7.158;2023-08-06T09:20:19;99904.00;;;19.20
33877;BMP180;20166;51.738;7.158;2023-08-06T09:23:07;99909.00;;;19.00
33877;BMP180;20166;51.738;7.158;2023-08-06T09:25:56;99916.00;;;18.90
33877;BMP180;20166;51.738;7.158;2023-08-06T09:28:42;99915.00;;;19.00
33877;BMP180;20166;51.738;7.158;2023-08-06T09:31:32;99916.00;;;19.00
33877;BMP180;20166;51.738;7.158;2023-08-06T09:34:20;99915.00;;;19.00
33877;BMP180;20166;51.738;7.158;2023-08-06T09:37:08;99921.00;;;18.90
33877;BMP180;20166;51.738;7.158;2023-08-06T09:39:55;99917.00;;;19.10
33877;BMP180;20166;51.738;7.158;2023-08-06T09:42:43;99916.00;;;19.10
33877;BMP180;20166;51.738;7.158;2023-08-06T09:45:32;99921.00;;;18.90
33877;BMP180;20166;51.738;7.158;2023-08-06T09:48:19;99920.00;;;18.90
33877;BMP180;20166;51.738;7.158;2023-08-06T09:51:10;99919.00;;;19.10
33877;BMP180;20166;51.738;7.158;2023-08-06T09:54:00;99933.00;;;19.10
33877;BMP180;20166;51.738;7.158;2023-08-06T09:57:05;99929.00;;;19.10
33877;BMP180;20166;51.738;7.158;2023-08-06T09:59:53;99935.00;;;19.00
33877;BMP180;20166;51.738;7.158;2023-08-06T10:02:40;99925.00;;;19.10
33877;BMP180;20166;51.738;7.158;2023-08-06T10:05:27;99928.00;;;19.30
33877;BMP180;20166;51.738;7.158;2023-08-06T10:08:15;99931.00;;;19.20
33877;BMP180;20166;51.738;7.158;2023-08-06T10:11:03;99919.00;;;19.10
33877;BMP180;20166;51.738;7.158;2023-08-06T10:13:53;99927.00;;;19.20
33877;BMP180;20166;51.738;7.158;2023-08-06T10:16:42;99931.00;;;19.10
33877;BMP180;20166;51.738;7.158;2023-08-06T10:19:29;99921.00;;;19.20
33877;BMP180;20166;51.738;7.158;2023-08-06T10:22:17;99931.00;;;19.30
33877;BMP180;20166;51.738;7.158;2023-08-06T10:25:04;99916.00;;;19.60
33877;BMP180;20166;51.738;7.158;2023-08-06T10:27:54;99899.00;;;20.00
33877;BMP180;20166;51.738;7.158;2023-08-06T10:30:42;99894.00;;;20.90
33877;BMP180;20166;51.738;7.158;2023-08-06T10:33:41;99904.00;;;20.70
33877;BMP180;20166;51.738;7.158;2023-08-06T10:36:30;99902.00;;;20.30
33877;BMP180;20166;51.738;7.158;2023-08-06T10:39:17;99901.00;;;20.30
33877;BMP180;20166;51.738;7.158;2023-08-06T10:42:20;99901.00;;;20.80
33877;BMP180;20166;51.738;7.158;2023-08-06T10:45:17;99906.00;;;20.80
33877;BMP180;20166;51.738;7.158;2023-08-06T10:48:04;99923.00;;;19.90
33877;BMP180;20166;51.738;7.158;2023-08-06T10:50:53;99921.00;;;19.70
33877;BMP180;20166;51.738;7.158;2023-08-06T10:53:42;99919.00;;;19.60
33877;BMP180;20166;51.738;7.158;2023-08-06T10:56:29;99925.00;;;19.50
33877;BMP180;20166;51.738;7.158;2023-08-06T10:59:16;99925.00;;;19.50
33877;BMP180;20166;51.738;7.158;2023-08-06T11:02:03;99934.00;;;19.50
33877;BMP180;20166;51.738;7.158;2023-08-06T11:04:50;99934.00;;;19.50
33877;BMP180;20166;51.738;7.158;2023-08-06T11:07:38;99937.00;;;19.40
33877;BMP180;20166;51.738;7.158;2023-08-06T11:10:25;99934.00;;;19.50
33877;BMP180;20166;51.738;7.158;2023-08-06T11:13:11;99939.00;;;19.50
33877;BMP180;20166;51.738;7.158;2023-08-06T11:16:03;99939.00;;;19.30
33877;BMP180;20166;51.738;7.158;2023-08-06T11:18:49;99935.00;;;19.40
33877;BMP180;20166;51.738;7.158;2023-08-06T11:21:36;99941.00;;;19.40
33877;BMP180;20166;51.738;7.158;2023-08-06T11:24:24;99942.00;;;19.50
33877;BMP180;20166;51.738;7.158;2023-08-06T11:27:12;99932.00;;;19.70
33877;BMP180;20166;51.738;7.158;2023-08-06T11:30:00;99927.00;;;19.90
33877;BMP180;20166;51.738;7.158;2023-08-06T11:32:47;99924.00;;;19.90
33877;BMP180;20166;51.738;7.158;2023-08-06T11:35:34;99916.00;;;20.10
33877;BMP180;20166;51.738;7.158;2023-08-06T11:38:20;99918.00;;;20.20
33877;BMP180;20166;51.738;7.158;2023-08-06T11:41:08;99916.00;;;20.50
33877;BMP180;20166;51.738;7.158;2023-08-06T11:43:55;99916.00;;;20.50
33877;BMP180;20166;51.738;7.158;2023-08-06T11:46:51;99919.00;;;20.50
33877;BMP180;20166;51.738;7.158;2023-08-06T11:49:39;99906.00;;;20.90
33877;BMP180;20166;51.738;7.158;2023-08-06T11:52:28;99910.00;;;21.00
33877;BMP180;20166;51.738;7.158;2023-08-06T11:55:14;99910.00;;;21.00
33877;BMP180;20166;51.738;7.158;2023-08-06T11:58:04;99909.00;;;21.30
33877;BMP180;20166;51.738;7.158;2023-08-06T12:00:50;99890.00;;;21.70
33877;BMP180;20166;51.738;7.158;2023-08-06T12:03:39;99898.00;;;21.90
33877;BMP180;20166;51.738;7.158;2023-08-06T12:06:26;99899.00;;;22.00
33877;BMP180;20166;51.738;7.158;2023-08-06T12:09:13;99903.00;;;21.80
33877;BMP180;20166;51.738;7.158;2023-08-06T12:12:02;99895.00;;;21.70
33877;BMP180;20166;51.738;7.158;2023-08-06T12:14:50;99896.00;;;21.80
33877;BMP180;20166;51.738;7.158;2023-08-06T12:17:37;99902.00;;;21.70
33877;BMP180;20166;51.738;7.158;2023-08-06T12:20:24;99901.00;;;21.80
33877;BMP180;20166;51.738;7.158;2023-08-06T12:23:12;99901.00;;;21.90
33877;BMP180;20166;51.738;7.158;2023-08-06T12:26:00;99911.00;;;22.30
33877;BMP180;20166;51.738;7.158;2023-08-06T12:28:46;99919.00;;;22.40
33877;BMP180;20166;51.738;7.158;2023-08-06T12:31:35;99922.00;;;21.90
33877;BMP180;20166;51.738;7.158;2023-08-06T12:34:23;99924.00;;;21.80
33877;BMP180;20166;51.738;7.158;2023-08-06T12:37:13;99930.00;;;21.80
33877;BMP180;20166;51.738;7.158;2023-08-06T12:39:59;99937.00;;;21.50
33877;BMP180;20166;51.738;7.158;2023-08-06T12:43:06;99944.00;;;21.10
33877;BMP180;20166;51.738;7.158;2023-08-06T12:45:52;99944.00;;;21.20
33877;BMP180;20166;51.738;7.158;2023-08-06T12:48:40;99942.00;;;21.40
33877;BMP180;20166;51.738;7.158;2023-08-06T12:51:26;99950.00;;;21.10
33877;BMP180;20166;51.738;7.158;2023-08-06T12:54:12;99968.00;;;20.80
33877;BMP180;20166;51.738;7.158;2023-08-06T12:56:59;99979.00;;;20.00
33877;BMP180;20166;51.738;7.158;2023-08-06T12:59:45;99986.00;;;19.70
33877;BMP180;20166;51.738;7.158;2023-08-06T13:02:33;99990.00;;;19.40
33877;BMP180;20166;51.738;7.158;2023-08-06T13:05:21;100008.00;;;18.90
33877;BMP180;20166;51.738;7.158;2023-08-06T13:08:08;100024.00;;;18.90
33877;BMP180;20166;51.738;7.158;2023-08-06T13:10:54;100026.00;;;18.70
33877;BMP180;20166;51.738;7.158;2023-08-06T13:13:40;100037.00;;;18.50
33877;BMP180;20166;51.738;7.158;2023-08-06T13:16:27;100047.00;;;18.20
33877;BMP180;20166;51.738;7.158;2023-08-06T13:19:14;100044.00;;;18.10
33877;BMP180;20166;51.738;7.158;2023-08-06T13:22:03;100036.00;;;18.00
33877;BMP180;20166;51.738;7.158;2023-08-06T13:24:51;100042.00;;;18.00
33877;BMP180;20166;51.738;7.158;2023-08-06T13:27:38;100045.00;;;18.00
33877;BMP180;20166;51.738;7.158;2023-08-06T13:30:24;100043.00;;;17.90
33877;BMP180;20166;51.738;7.158;2023-08-06T13:33:11;100043.00;;;17.90
33877;BMP180;20166;51.738;7.158;2023-08-06T13:35:57;100039.00;;;17.60
33877;BMP180;20166;51.738;7.158;2023-08-06T13:38:45;100027.00;;;17.40
33877;BMP180;20166;51.738;7.158;2023-08-06T13:41:31;100041.00;;;17.60
33877;BMP180;20166;51.738;7.158;2023-08-06T13:44:17;100051.00;;;17.60
33877;BMP180;20166;51.738;7.158;2023-08-06T13:47:04;100057.00;;;17.70
33877;BMP180;20166;51.738;7.158;2023-08-06T13:49:50;100069.00;;;17.70
33877;BMP180;20166;51.738;7.158;2023-08-06T13:52:36;100083.00;;;17.70
33877;BMP180;20166;51.738;7.158;2023-08-06T13:55:24;100080.00;;;17.40
33877;BMP180;20166;51.738;7.158;2023-08-06T13:58:11;100100.00;;;17.50
33877;BMP180;20166;51.738;7.158;2023-08-06T14:00:58;100092.00;;;17.60
33877;BMP180;20166;51.738;7.158;2023-08-06T14:03:45;100077.00;;;17.60
33877;BMP180;20166;51.738;7.158;2023-08-06T14:06:31;100092.00;;;17.60
33877;BMP180;20166;51.738;7.158;2023-08-06T14:09:18;100091.00;;;17.60
33877;BMP180;20166;51.738;7.158;2023-08-06T14:12:07;100088.00;;;17.70
33877;BMP180;20166;51.738;7.158;2023-08-06T14:14:53;100095.00;;;17.60
33877;BMP180;20166;51.738;7.158;2023-08-06T14:17:39;100092.00;;;17.30
33877;BMP180;20166;51.738;7.158;2023-08-06T14:20:25;100087.00;;;17.40
33877;BMP180;20166;51.738;7.158;2023-08-06T14:23:11;100096.00;;;17.50
33877;BMP180;20166;51.738;7.158;2023-08-06T14:25:58;100087.00;;;17.50
33877;BMP180;20166;51.738;7.158;2023-08-06T14:28:46;100082.00;;;17.50
33877;BMP180;20166;51.738;7.158;2023-08-06T14:31:32;100098.00;;;17.90
33877;BMP180;20166;51.738;7.158;2023-08-06T14:34:18;100108.00;;;18.10
33877;BMP180;20166;51.738;7.158;2023-08-06T14:37:05;100106.00;;;17.80
33877;BMP180;20166;51.738;7.158;2023-08-06T14:39:51;100110.00;;;17.50
33877;BMP180;20166;51.738;7.158;2023-08-06T14:42:38;100125.00;;;17.60
33877;BMP180;20166;51.738;7.158;2023-08-06T14:45:26;100133.00;;;17.70
33877;BMP180;20166;51.738;7.158;2023-08-06T14:48:13;100135.00;;;17.40
33877;BMP180;20166;51.738;7.158;2023-08-06T14:50:59;100133.00;;;17.40
33877;BMP180;20166;51.738;7.158;2023-08-06T14:53:46;100120.00;;;17.50
33877;BMP180;20166;51.738;7.158;2023-08-06T14:56:32;100123.00;;;17.30
33877;BMP180;20166;51.738;7.158;2023-08-06T14:59:18;100118.00;;;17.40
33877;BMP180;20166;51.738;7.158;2023-08-06T15:02:06;100130.00;;;17.50
33877;BMP180;20166;51.738;7.158;2023-08-06T15:04:52;100137.00;;;17.20
33877;BMP180;20166;51.738;7.158;2023-08-06T15:07:39;100148.00;;;17.40
33877;BMP180;20166;51.738;7.158;2023-08-06T15:10:25;100145.00;;;17.50
33877;BMP180;20166;51.738;7.158;2023-08-06T15:13:12;100150.00;;;17.70
33877;BMP180;20166;51.738;7.158;2023-08-06T15:15:59;100169.00;;;17.40
33877;BMP180;20166;51.738;7.158;2023-08-06T15:18:46;100186.00;;;17.20
33877;BMP180;20166;51.738;7.158;2023-08-06T15:21:33;100194.00;;;17.10
33877;BMP180;20166;51.738;7.158;2023-08-06T15:24:20;100206.00;;;17.10
33877;BMP180;20166;51.738;7.158;2023-08-06T15:27:07;100208.00;;;16.70
33877;BMP180;20166;51.738;7.158;2023-08-06T15:29:54;100210.00;;;16.90
33877;BMP180;20166;51.738;7.158;2023-08-06T15:32:40;100230.00;;;16.80
33877;BMP180;20166;51.738;7.158;2023-08-06T15:35:31;100229.00;;;16.60
33877;BMP180;20166;51.738;7.158;2023-08-06T15:38:17;100225.00;;;16.70
33877;BMP180;20166;51.738;7.158;2023-08-06T15:41:03;100216.00;;;16.70
33877;BMP180;20166;51.738;7.158;2023-08-06T15:43:50;100232.00;;;16.70
33877;BMP180;20166;51.738;7.158;2023-08-06T15:46:36;100219.00;;;16.70
33877;BMP180;20166;51.738;7.158;2023-08-06T15:49:22;100226.00;;;16.50
33877;BMP180;20166;51.738;7.158;2023-08-06T15:52:10;100226.00;;;16.60
33877;BMP180;20166;51.738;7.158;2023-08-06T15:54:57;100222.00;;;16.50
33877;BMP180;20166;51.738;7.158;2023-08-06T15:57:48;100219.00;;;16.70
33877;BMP180;20166;51.738;7.158;2023-08-06T16:00:34;100221.00;;;16.60
33877;BMP180;20166;51.738;7.158;2023-08-06T16:03:21;100223.00;;;16.60